Huntsville, AL (35812)

7:17 AM CST on January 25, 2015 (GMT -0600)
APRSWXNET Huntsville AL US | Change Station
CLOSE
Current Station
Personal Weather Station
Location: Huntsville, AL
Elevation: 597 ft
Nearby Weather Stations

Elev 597 ft 34.65 °N, 86.67 °W | Updated 46 minutes ago

Clear
Clear
30 °F
Feels Like 30 °F
N
0
Wind Variable Wind from SE
Gusts 0.0 mph

Today
High -- | Low -- °F
--% Chance of Precip.
Yesterday
High -- | Low -- °F
Precip. -- in
6:49 AM 5:08 PM
Waxing Crescent, 32% visible
Pressure 29.89 in
Visibility 9.0 miles
Clouds Clear
Windchill 30 °F
Dew Point 29 °F
Humidity 97%
Rainfall 0.00 in
Snow Depth Not available.
UV 0 out of 12
Pollen 1.80 out of 12
Air Quality Not available.
Flu Activity Not available.
METAR KHUA 251258Z AUTO 18006KT 9SM CLR 00/M01 A2987 RMK AO2 SLP121 T00001012

More Conditions Fewer Conditions

Pressure 29.89 in
Visibility 9.0 miles
Clouds Clear
Windchill 30 °F
Dew Point 29 °F
Humidity 97%
Rainfall 0.00 in
Snow Depth Not available.
UV 0 out of 12
Pollen 1.80 out of 12
Air Quality Not available.
Flu Activity Not available.
METAR KHUA 251258Z AUTO 18006KT 9SM CLR 00/M01 A2987 RMK AO2 SLP121 T00001012

More Conditions Fewer Conditions

10-Day Weather Forecast

Almanac

Astronomy

Jan. 25, 2015 Rise Set
Actual Time
Civil Twilight
Nautical Twilight
Astronomical Twilight
Moon
Length of Visible Light
Length of Day
Tomorrow will be .
, % of the Moon is Illuminated

Today's Extremes

State Highs State Lows

Community

WunderPhotos

Upload Photos

1,789,881 photos uploaded!

WunderBlogs® & News

Nearby

Air Quality

  Air Quality AQ Index Pollutant
Not available.

Snow Depth

Station Depth Elevation

Earthquake Activity

City Distance Mag. Time & Date
Minimum magnitude displayed is 2.5.

Coastal Water Temperatures

Place Temperature

Nearby Weather Stations